sensor_id;sensor_type;location;lat;lon;timestamp;P1;durP1;ratioP1;P2;durP2;ratioP2
75858;SDS011;64504;51.308;8.620;2022-12-07T00:00:33;7.40;;;5.95;;
75858;SDS011;64504;51.308;8.620;2022-12-07T00:02:59;5.07;;;4.22;;
75858;SDS011;64504;51.308;8.620;2022-12-07T00:05:25;12.68;;;5.22;;
75858;SDS011;64504;51.308;8.620;2022-12-07T00:10:24;3.78;;;3.45;;
75858;SDS011;64504;51.308;8.620;2022-12-07T00:13:01;4.88;;;4.28;;
75858;SDS011;64504;51.308;8.620;2022-12-07T00:15:35;7.82;;;5.45;;
75858;SDS011;64504;51.308;8.620;2022-12-07T00:18:05;3.38;;;3.08;;
75858;SDS011;64504;51.308;8.620;2022-12-07T00:22:59;3.75;;;3.33;;
75858;SDS011;64504;51.308;8.620;2022-12-07T00:25:25;7.10;;;3.50;;
75858;SDS011;64504;51.308;8.620;2022-12-07T00:27:51;4.00;;;3.70;;
75858;SDS011;64504;51.308;8.620;2022-12-07T00:30:17;5.28;;;4.53;;
75858;SDS011;64504;51.308;8.620;2022-12-07T00:32:44;3.95;;;3.55;;
75858;SDS011;64504;51.308;8.620;2022-12-07T00:35:11;3.97;;;3.47;;
75858;SDS011;64504;51.308;8.620;2022-12-07T00:37:38;2.80;;;2.53;;
75858;SDS011;64504;51.308;8.620;2022-12-07T00:42:43;3.83;;;3.53;;
75858;SDS011;64504;51.308;8.620;2022-12-07T00:45:08;7.43;;;3.63;;
75858;SDS011;64504;51.308;8.620;2022-12-07T00:47:38;3.60;;;3.22;;
75858;SDS011;64504;51.308;8.620;2022-12-07T00:50:03;5.18;;;3.40;;
75858;SDS011;64504;51.308;8.620;2022-12-07T00:52:29;9.88;;;4.32;;
75858;SDS011;64504;51.308;8.620;2022-12-07T00:54:54;5.18;;;3.58;;
75858;SDS011;64504;51.308;8.620;2022-12-07T00:57:20;4.38;;;4.00;;
75858;SDS011;64504;51.308;8.620;2022-12-07T00:59:49;7.13;;;4.68;;
75858;SDS011;64504;51.308;8.620;2022-12-07T01:02:28;6.72;;;4.35;;
75858;SDS011;64504;51.308;8.620;2022-12-07T01:04:55;4.32;;;3.88;;
75858;SDS011;64504;51.308;8.620;2022-12-07T01:07:27;6.10;;;5.28;;
75858;SDS011;64504;51.308;8.620;2022-12-07T01:09:52;8.18;;;6.35;;
75858;SDS011;64504;51.308;8.620;2022-12-07T01:12:18;6.47;;;4.25;;
75858;SDS011;64504;51.308;8.620;2022-12-07T01:14:43;8.52;;;5.60;;
75858;SDS011;64504;51.308;8.620;2022-12-07T01:17:09;9.38;;;5.80;;
75858;SDS011;64504;51.308;8.620;2022-12-07T01:19:34;5.38;;;4.88;;
75858;SDS011;64504;51.308;8.620;2022-12-07T01:22:00;10.02;;;5.88;;
75858;SDS011;64504;51.308;8.620;2022-12-07T01:24:26;9.73;;;6.82;;
75858;SDS011;64504;51.308;8.620;2022-12-07T01:26:52;7.20;;;6.47;;
75858;SDS011;64504;51.308;8.620;2022-12-07T01:29:18;11.40;;;9.45;;
75858;SDS011;64504;51.308;8.620;2022-12-07T01:31:43;9.93;;;8.93;;
75858;SDS011;64504;51.308;8.620;2022-12-07T01:34:08;10.05;;;8.57;;
75858;SDS011;64504;51.308;8.620;2022-12-07T01:36:36;17.30;;;10.27;;
75858;SDS011;64504;51.308;8.620;2022-12-07T01:39:03;15.45;;;10.80;;
75858;SDS011;64504;51.308;8.620;2022-12-07T01:41:31;15.23;;;10.77;;
75858;SDS011;64504;51.308;8.620;2022-12-07T01:44:08;11.95;;;10.15;;
75858;SDS011;64504;51.308;8.620;2022-12-07T01:47:00;14.45;;;11.23;;
75858;SDS011;64504;51.308;8.620;2022-12-07T01:54:36;16.65;;;10.27;;
75858;SDS011;64504;51.308;8.620;2022-12-07T01:57:02;14.02;;;8.95;;
75858;SDS011;64504;51.308;8.620;2022-12-07T01:59:28;12.75;;;10.48;;
75858;SDS011;64504;51.308;8.620;2022-12-07T02:01:59;11.95;;;10.52;;
75858;SDS011;64504;51.308;8.620;2022-12-07T02:04:26;13.15;;;10.05;;
75858;SDS011;64504;51.308;8.620;2022-12-07T02:06:52;12.55;;;10.50;;
75858;SDS011;64504;51.308;8.620;2022-12-07T02:09:18;12.55;;;10.20;;
75858;SDS011;64504;51.308;8.620;2022-12-07T02:11:53;12.77;;;10.55;;
75858;SDS011;64504;51.308;8.620;2022-12-07T02:14:19;14.03;;;9.37;;
75858;SDS011;64504;51.308;8.620;2022-12-07T02:30:01;8.40;;;7.18;;
75858;SDS011;64504;51.308;8.620;2022-12-07T02:32:40;9.02;;;7.80;;
75858;SDS011;64504;51.308;8.620;2022-12-07T02:37:53;8.07;;;7.22;;
75858;SDS011;64504;51.308;8.620;2022-12-07T02:40:33;10.07;;;6.43;;
75858;SDS011;64504;51.308;8.620;2022-12-07T02:43:04;6.78;;;5.72;;
75858;SDS011;64504;51.308;8.620;2022-12-07T02:45:41;6.53;;;5.78;;
75858;SDS011;64504;51.308;8.620;2022-12-07T02:48:08;6.43;;;4.53;;
75858;SDS011;64504;51.308;8.620;2022-12-07T02:50:35;5.70;;;5.20;;
75858;SDS011;64504;51.308;8.620;2022-12-07T02:53:01;6.05;;;5.22;;
75858;SDS011;64504;51.308;8.620;2022-12-07T02:58:57;6.82;;;5.57;;
75858;SDS011;64504;51.308;8.620;2022-12-07T03:07:10;6.50;;;4.82;;
75858;SDS011;64504;51.308;8.620;2022-12-07T03:09:44;8.50;;;5.47;;
75858;SDS011;64504;51.308;8.620;2022-12-07T03:12:20;8.85;;;6.10;;
75858;SDS011;64504;51.308;8.620;2022-12-07T03:14:58;6.38;;;4.88;;
75858;SDS011;64504;51.308;8.620;2022-12-07T03:17:45;7.88;;;6.28;;
75858;SDS011;64504;51.308;8.620;2022-12-07T03:22:47;14.25;;;7.55;;
75858;SDS011;64504;51.308;8.620;2022-12-07T03:25:13;8.15;;;6.72;;
75858;SDS011;64504;51.308;8.620;2022-12-07T03:30:46;6.88;;;5.40;;
75858;SDS011;64504;51.308;8.620;2022-12-07T03:35:55;11.52;;;6.57;;
75858;SDS011;64504;51.308;8.620;2022-12-07T03:38:40;6.85;;;5.95;;
75858;SDS011;64504;51.308;8.620;2022-12-07T03:41:22;10.70;;;6.10;;
75858;SDS011;64504;51.308;8.620;2022-12-07T03:43:53;11.13;;;8.43;;
75858;SDS011;64504;51.308;8.620;2022-12-07T03:52:53;7.03;;;6.00;;
75858;SDS011;64504;51.308;8.620;2022-12-07T03:55:41;6.18;;;5.57;;
75858;SDS011;64504;51.308;8.620;2022-12-07T04:00:43;9.10;;;5.07;;
75858;SDS011;64504;51.308;8.620;2022-12-07T04:03:09;6.35;;;4.55;;
75858;SDS011;64504;51.308;8.620;2022-12-07T04:05:38;5.35;;;3.35;;
75858;SDS011;64504;51.308;8.620;2022-12-07T04:08:06;5.05;;;4.32;;
75858;SDS011;64504;51.308;8.620;2022-12-07T04:10:31;5.03;;;4.15;;
75858;SDS011;64504;51.308;8.620;2022-12-07T04:12:56;3.42;;;3.13;;
75858;SDS011;64504;51.308;8.620;2022-12-07T04:15:22;4.07;;;3.22;;
75858;SDS011;64504;51.308;8.620;2022-12-07T04:17:48;8.05;;;3.88;;
75858;SDS011;64504;51.308;8.620;2022-12-07T04:20:13;4.63;;;3.97;;
75858;SDS011;64504;51.308;8.620;2022-12-07T04:22:39;4.80;;;3.50;;
75858;SDS011;64504;51.308;8.620;2022-12-07T04:25:04;5.07;;;4.60;;
75858;SDS011;64504;51.308;8.620;2022-12-07T04:27:34;13.23;;;6.90;;
75858;SDS011;64504;51.308;8.620;2022-12-07T04:29:59;9.27;;;6.30;;
75858;SDS011;64504;51.308;8.620;2022-12-07T04:32:32;13.52;;;7.57;;
75858;SDS011;64504;51.308;8.620;2022-12-07T04:35:07;10.88;;;8.10;;
75858;SDS011;64504;51.308;8.620;2022-12-07T04:44:14;19.02;;;8.68;;
75858;SDS011;64504;51.308;8.620;2022-12-07T04:46:48;13.27;;;7.82;;
75858;SDS011;64504;51.308;8.620;2022-12-07T05:06:39;13.50;;;6.32;;
75858;SDS011;64504;51.308;8.620;2022-12-07T05:09:23;11.68;;;8.75;;
75858;SDS011;64504;51.308;8.620;2022-12-07T05:12:48;18.58;;;8.27;;
75858;SDS011;64504;51.308;8.620;2022-12-07T05:16:04;13.25;;;8.20;;
75858;SDS011;64504;51.308;8.620;2022-12-07T05:19:14;9.43;;;6.00;;
75858;SDS011;64504;51.308;8.620;2022-12-07T05:22:04;11.10;;;7.60;;
75858;SDS011;64504;51.308;8.620;2022-12-07T05:25:17;9.55;;;6.30;;
75858;SDS011;64504;51.308;8.620;2022-12-07T05:27:53;12.20;;;8.38;;
75858;SDS011;64504;51.308;8.620;2022-12-07T05:55:01;6.60;;;4.45;;
75858;SDS011;64504;51.308;8.620;2022-12-07T05:57:26;9.43;;;5.07;;
75858;SDS011;64504;51.308;8.620;2022-12-07T05:59:52;6.28;;;5.57;;
75858;SDS011;64504;51.308;8.620;2022-12-07T06:02:17;12.18;;;5.90;;
75858;SDS011;64504;51.308;8.620;2022-12-07T06:04:44;9.85;;;4.38;;
75858;SDS011;64504;51.308;8.620;2022-12-07T06:07:11;7.93;;;5.38;;
75858;SDS011;64504;51.308;8.620;2022-12-07T06:09:37;11.60;;;7.70;;
75858;SDS011;64504;51.308;8.620;2022-12-07T06:12:03;13.32;;;6.20;;
75858;SDS011;64504;51.308;8.620;2022-12-07T06:14:48;10.75;;;5.28;;
75858;SDS011;64504;51.308;8.620;2022-12-07T06:17:14;8.93;;;6.13;;
75858;SDS011;64504;51.308;8.620;2022-12-07T06:19:40;6.75;;;5.38;;
75858;SDS011;64504;51.308;8.620;2022-12-07T06:22:06;5.60;;;4.70;;
75858;SDS011;64504;51.308;8.620;2022-12-07T06:24:33;8.77;;;5.18;;
75858;SDS011;64504;51.308;8.620;2022-12-07T06:26:58;5.47;;;4.97;;
75858;SDS011;64504;51.308;8.620;2022-12-07T06:29:24;12.60;;;4.65;;
75858;SDS011;64504;51.308;8.620;2022-12-07T06:31:50;6.78;;;3.90;;
75858;SDS011;64504;51.308;8.620;2022-12-07T06:34:18;6.25;;;5.47;;
75858;SDS011;64504;51.308;8.620;2022-12-07T06:36:45;11.13;;;5.53;;
75858;SDS011;64504;51.308;8.620;2022-12-07T06:39:16;6.93;;;4.35;;
75858;SDS011;64504;51.308;8.620;2022-12-07T06:41:42;4.72;;;4.30;;
75858;SDS011;64504;51.308;8.620;2022-12-07T06:44:08;10.73;;;5.18;;
75858;SDS011;64504;51.308;8.620;2022-12-07T06:46:33;5.35;;;4.50;;
75858;SDS011;64504;51.308;8.620;2022-12-07T06:49:00;11.55;;;4.95;;
75858;SDS011;64504;51.308;8.620;2022-12-07T06:51:26;6.82;;;3.88;;
75858;SDS011;64504;51.308;8.620;2022-12-07T06:53:51;7.55;;;4.32;;
75858;SDS011;64504;51.308;8.620;2022-12-07T06:56:17;8.35;;;3.70;;
75858;SDS011;64504;51.308;8.620;2022-12-07T06:58:42;8.50;;;4.07;;
75858;SDS011;64504;51.308;8.620;2022-12-07T07:01:15;4.28;;;3.92;;
75858;SDS011;64504;51.308;8.620;2022-12-07T07:03:43;4.05;;;3.67;;
75858;SDS011;64504;51.308;8.620;2022-12-07T07:06:10;9.00;;;3.90;;
75858;SDS011;64504;51.308;8.620;2022-12-07T07:08:37;5.80;;;3.58;;
75858;SDS011;64504;51.308;8.620;2022-12-07T07:11:04;4.80;;;3.83;;
75858;SDS011;64504;51.308;8.620;2022-12-07T07:13:30;7.15;;;3.13;;
75858;SDS011;64504;51.308;8.620;2022-12-07T07:15:56;8.90;;;3.53;;
75858;SDS011;64504;51.308;8.620;2022-12-07T07:18:22;5.00;;;3.25;;
75858;SDS011;64504;51.308;8.620;2022-12-07T07:20:47;7.78;;;3.10;;
75858;SDS011;64504;51.308;8.620;2022-12-07T07:23:13;3.83;;;3.33;;
75858;SDS011;64504;51.308;8.620;2022-12-07T07:25:39;8.15;;;3.97;;
75858;SDS011;64504;51.308;8.620;2022-12-07T07:28:04;5.53;;;3.67;;
75858;SDS011;64504;51.308;8.620;2022-12-07T07:30:31;6.68;;;4.22;;
75858;SDS011;64504;51.308;8.620;2022-12-07T07:33:03;6.55;;;4.15;;
75858;SDS011;64504;51.308;8.620;2022-12-07T07:35:29;7.18;;;4.15;;
75858;SDS011;64504;51.308;8.620;2022-12-07T07:37:56;8.48;;;3.72;;
75858;SDS011;64504;51.308;8.620;2022-12-07T07:40:22;6.32;;;4.35;;
75858;SDS011;64504;51.308;8.620;2022-12-07T07:42:48;17.35;;;4.97;;
75858;SDS011;64504;51.308;8.620;2022-12-07T07:45:14;7.93;;;4.25;;
75858;SDS011;64504;51.308;8.620;2022-12-07T07:47:40;7.00;;;4.35;;
75858;SDS011;64504;51.308;8.620;2022-12-07T07:50:05;6.95;;;3.70;;
75858;SDS011;64504;51.308;8.620;2022-12-07T07:52:33;3.45;;;2.65;;
75858;SDS011;64504;51.308;8.620;2022-12-07T07:54:59;7.43;;;3.80;;
75858;SDS011;64504;51.308;8.620;2022-12-07T07:57:24;3.85;;;2.58;;
75858;SDS011;64504;51.308;8.620;2022-12-07T07:59:50;3.50;;;3.03;;
75858;SDS011;64504;51.308;8.620;2022-12-07T08:02:16;4.00;;;3.47;;
75858;SDS011;64504;51.308;8.620;2022-12-07T08:04:43;8.05;;;3.22;;
75858;SDS011;64504;51.308;8.620;2022-12-07T08:07:09;7.90;;;4.60;;
75858;SDS011;64504;51.308;8.620;2022-12-07T08:09:36;4.53;;;3.97;;
75858;SDS011;64504;51.308;8.620;2022-12-07T08:12:02;12.02;;;5.65;;
75858;SDS011;64504;51.308;8.620;2022-12-07T08:14:29;5.18;;;4.55;;
75858;SDS011;64504;51.308;8.620;2022-12-07T08:16:55;6.55;;;4.63;;
75858;SDS011;64504;51.308;8.620;2022-12-07T08:19:20;7.07;;;4.10;;
75858;SDS011;64504;51.308;8.620;2022-12-07T08:21:45;9.23;;;4.32;;
75858;SDS011;64504;51.308;8.620;2022-12-07T08:24:12;4.28;;;3.58;;
75858;SDS011;64504;51.308;8.620;2022-12-07T08:26:38;8.38;;;5.13;;
75858;SDS011;64504;51.308;8.620;2022-12-07T08:29:03;3.97;;;3.67;;
75858;SDS011;64504;51.308;8.620;2022-12-07T08:31:28;4.32;;;3.17;;
75858;SDS011;64504;51.308;8.620;2022-12-07T08:33:54;3.65;;;2.95;;
75858;SDS011;64504;51.308;8.620;2022-12-07T08:36:20;3.28;;;2.90;;
75858;SDS011;64504;51.308;8.620;2022-12-07T08:38:46;6.32;;;4.60;;
75858;SDS011;64504;51.308;8.620;2022-12-07T08:41:12;4.22;;;3.55;;
75858;SDS011;64504;51.308;8.620;2022-12-07T08:43:38;10.68;;;4.70;;
75858;SDS011;64504;51.308;8.620;2022-12-07T08:48:29;6.00;;;4.05;;
75858;SDS011;64504;51.308;8.620;2022-12-07T08:50:56;4.13;;;3.45;;
75858;SDS011;64504;51.308;8.620;2022-12-07T08:53:23;3.88;;;3.15;;
75858;SDS011;64504;51.308;8.620;2022-12-07T08:55:49;4.72;;;3.95;;
75858;SDS011;64504;51.308;8.620;2022-12-07T08:58:15;4.60;;;4.00;;
75858;SDS011;64504;51.308;8.620;2022-12-07T09:00:41;5.10;;;4.57;;
75858;SDS011;64504;51.308;8.620;2022-12-07T09:03:07;8.32;;;3.65;;
75858;SDS011;64504;51.308;8.620;2022-12-07T09:05:32;5.95;;;4.95;;
75858;SDS011;64504;51.308;8.620;2022-12-07T09:08:01;11.50;;;4.82;;
75858;SDS011;64504;51.308;8.620;2022-12-07T09:10:27;6.22;;;4.95;;
75858;SDS011;64504;51.308;8.620;2022-12-07T09:12:53;8.20;;;3.65;;
75858;SDS011;64504;51.308;8.620;2022-12-07T09:15:19;9.25;;;4.28;;
75858;SDS011;64504;51.308;8.620;2022-12-07T09:17:45;5.50;;;3.90;;
75858;SDS011;64504;51.308;8.620;2022-12-07T09:20:10;12.65;;;4.13;;
75858;SDS011;64504;51.308;8.620;2022-12-07T09:22:36;4.35;;;3.10;;
75858;SDS011;64504;51.308;8.620;2022-12-07T09:25:03;3.50;;;3.20;;
75858;SDS011;64504;51.308;8.620;2022-12-07T09:27:30;8.48;;;4.65;;
75858;SDS011;64504;51.308;8.620;2022-12-07T09:29:56;5.30;;;4.32;;
75858;SDS011;64504;51.308;8.620;2022-12-07T09:32:21;4.32;;;3.83;;
75858;SDS011;64504;51.308;8.620;2022-12-07T09:34:47;6.93;;;4.05;;
75858;SDS011;64504;51.308;8.620;2022-12-07T09:37:12;9.05;;;4.93;;
75858;SDS011;64504;51.308;8.620;2022-12-07T09:39:38;11.73;;;4.57;;
75858;SDS011;64504;51.308;8.620;2022-12-07T09:42:04;4.32;;;3.90;;
75858;SDS011;64504;51.308;8.620;2022-12-07T09:44:32;17.42;;;5.68;;
75858;SDS011;64504;51.308;8.620;2022-12-07T09:46:58;4.22;;;3.85;;
75858;SDS011;64504;51.308;8.620;2022-12-07T09:49:25;7.63;;;4.82;;
75858;SDS011;64504;51.308;8.620;2022-12-07T09:54:33;6.53;;;4.85;;
75858;SDS011;64504;51.308;8.620;2022-12-07T09:57:01;6.50;;;4.28;;
75858;SDS011;64504;51.308;8.620;2022-12-07T09:59:27;17.10;;;5.00;;
75858;SDS011;64504;51.308;8.620;2022-12-07T10:01:53;11.60;;;4.90;;
75858;SDS011;64504;51.308;8.620;2022-12-07T10:04:26;4.75;;;4.35;;
75858;SDS011;64504;51.308;8.620;2022-12-07T10:06:54;5.93;;;4.22;;
75858;SDS011;64504;51.308;8.620;2022-12-07T10:09:21;5.65;;;3.85;;
75858;SDS011;64504;51.308;8.620;2022-12-07T10:14:33;4.63;;;3.15;;
75858;SDS011;64504;51.308;8.620;2022-12-07T10:17:00;6.07;;;2.92;;
75858;SDS011;64504;51.308;8.620;2022-12-07T10:19:30;6.53;;;4.03;;
75858;SDS011;64504;51.308;8.620;2022-12-07T10:22:07;8.18;;;3.67;;
75858;SDS011;64504;51.308;8.620;2022-12-07T10:24:39;7.95;;;2.90;;
75858;SDS011;64504;51.308;8.620;2022-12-07T10:27:29;3.38;;;2.60;;
75858;SDS011;64504;51.308;8.620;2022-12-07T10:30:07;3.78;;;3.05;;
75858;SDS011;64504;51.308;8.620;2022-12-07T10:32:35;11.63;;;4.18;;
75858;SDS011;64504;51.308;8.620;2022-12-07T10:35:21;7.70;;;3.58;;
75858;SDS011;64504;51.308;8.620;2022-12-07T10:37:51;3.33;;;3.03;;
75858;SDS011;64504;51.308;8.620;2022-12-07T10:40:28;6.85;;;3.13;;
75858;SDS011;64504;51.308;8.620;2022-12-07T10:51:28;10.98;;;3.28;;
75858;SDS011;64504;51.308;8.620;2022-12-07T11:04:58;2.50;;;2.28;;
75858;SDS011;64504;51.308;8.620;2022-12-07T11:07:43;2.83;;;2.15;;
75858;SDS011;64504;51.308;8.620;2022-12-07T11:13:04;4.18;;;3.38;;
75858;SDS011;64504;51.308;8.620;2022-12-07T11:21:10;6.05;;;2.42;;
75858;SDS011;64504;51.308;8.620;2022-12-07T11:37:57;10.05;;;3.95;;
75858;SDS011;64504;51.308;8.620;2022-12-07T11:45:51;7.70;;;5.35;;
75858;SDS011;64504;51.308;8.620;2022-12-07T11:48:29;5.57;;;4.10;;
75858;SDS011;64504;51.308;8.620;2022-12-07T11:50:59;8.70;;;3.30;;
75858;SDS011;64504;51.308;8.620;2022-12-07T11:53:46;4.43;;;3.05;;
75858;SDS011;64504;51.308;8.620;2022-12-07T11:56:16;4.97;;;4.20;;
75858;SDS011;64504;51.308;8.620;2022-12-07T12:01:14;7.07;;;4.60;;
75858;SDS011;64504;51.308;8.620;2022-12-07T12:03:49;4.45;;;4.00;;
75858;SDS011;64504;51.308;8.620;2022-12-07T12:06:16;3.65;;;3.35;;
75858;SDS011;64504;51.308;8.620;2022-12-07T12:08:43;3.83;;;3.42;;
75858;SDS011;64504;51.308;8.620;2022-12-07T12:21:46;5.03;;;4.05;;
75858;SDS011;64504;51.308;8.620;2022-12-07T12:24:15;3.65;;;3.30;;
75858;SDS011;64504;51.308;8.620;2022-12-07T12:26:59;8.23;;;3.95;;
75858;SDS011;64504;51.308;8.620;2022-12-07T12:43:38;3.78;;;2.97;;
75858;SDS011;64504;51.308;8.620;2022-12-07T12:45:51;9.18;;;4.85;;
75858;SDS011;64504;51.308;8.620;2022-12-07T12:51:47;8.82;;;4.90;;
75858;SDS011;64504;51.308;8.620;2022-12-07T12:54:15;5.15;;;4.68;;
75858;SDS011;64504;51.308;8.620;2022-12-07T12:59:35;6.35;;;4.82;;
75858;SDS011;64504;51.308;8.620;2022-12-07T13:04:56;17.80;;;5.10;;
75858;SDS011;64504;51.308;8.620;2022-12-07T13:10:29;4.78;;;4.38;;
75858;SDS011;64504;51.308;8.620;2022-12-07T13:15:45;7.85;;;4.82;;
75858;SDS011;64504;51.308;8.620;2022-12-07T13:28:25;6.68;;;6.00;;
75858;SDS011;64504;51.308;8.620;2022-12-07T13:31:04;8.23;;;5.55;;
75858;SDS011;64504;51.308;8.620;2022-12-07T13:33:38;8.67;;;6.13;;
75858;SDS011;64504;51.308;8.620;2022-12-07T13:36:04;5.72;;;5.20;;
75858;SDS011;64504;51.308;8.620;2022-12-07T13:38:31;9.77;;;5.43;;
75858;SDS011;64504;51.308;8.620;2022-12-07T13:41:02;8.13;;;4.60;;
75858;SDS011;64504;51.308;8.620;2022-12-07T13:43:28;6.05;;;4.13;;
75858;SDS011;64504;51.308;8.620;2022-12-07T13:45:57;5.68;;;5.13;;
75858;SDS011;64504;51.308;8.620;2022-12-07T13:48:31;9.65;;;5.22;;
75858;SDS011;64504;51.308;8.620;2022-12-07T13:50:58;9.13;;;5.70;;
75858;SDS011;64504;51.308;8.620;2022-12-07T13:53:27;8.80;;;5.13;;
75858;SDS011;64504;51.308;8.620;2022-12-07T13:55:58;14.15;;;5.30;;
75858;SDS011;64504;51.308;8.620;2022-12-07T13:58:25;6.90;;;5.65;;
75858;SDS011;64504;51.308;8.620;2022-12-07T14:00:52;7.10;;;6.10;;
75858;SDS011;64504;51.308;8.620;2022-12-07T14:05:44;5.72;;;5.13;;
75858;SDS011;64504;51.308;8.620;2022-12-07T14:10:39;15.18;;;5.88;;
75858;SDS011;64504;51.308;8.620;2022-12-07T14:16:17;5.70;;;5.00;;
75858;SDS011;64504;51.308;8.620;2022-12-07T14:18:44;10.38;;;6.07;;
75858;SDS011;64504;51.308;8.620;2022-12-07T14:23:36;4.82;;;4.43;;
75858;SDS011;64504;51.308;8.620;2022-12-07T14:26:18;7.82;;;6.03;;
75858;SDS011;64504;51.308;8.620;2022-12-07T14:28:44;5.35;;;4.53;;
75858;SDS011;64504;51.308;8.620;2022-12-07T14:31:11;5.55;;;4.45;;
75858;SDS011;64504;51.308;8.620;2022-12-07T14:33:41;9.15;;;5.95;;
75858;SDS011;64504;51.308;8.620;2022-12-07T14:36:11;8.23;;;4.65;;
75858;SDS011;64504;51.308;8.620;2022-12-07T14:38:37;11.35;;;5.22;;
75858;SDS011;64504;51.308;8.620;2022-12-07T14:41:03;11.77;;;4.60;;
75858;SDS011;64504;51.308;8.620;2022-12-07T14:43:48;9.33;;;4.40;;
75858;SDS011;64504;51.308;8.620;2022-12-07T14:46:14;9.00;;;5.05;;
75858;SDS011;64504;51.308;8.620;2022-12-07T14:48:39;10.75;;;5.45;;
75858;SDS011;64504;51.308;8.620;2022-12-07T14:51:04;11.95;;;5.20;;
75858;SDS011;64504;51.308;8.620;2022-12-07T14:53:35;5.07;;;3.90;;
75858;SDS011;64504;51.308;8.620;2022-12-07T14:56:03;6.78;;;5.00;;
75858;SDS011;64504;51.308;8.620;2022-12-07T14:58:30;13.88;;;4.35;;
75858;SDS011;64504;51.308;8.620;2022-12-07T15:00:56;12.23;;;5.20;;
75858;SDS011;64504;51.308;8.620;2022-12-07T15:03:21;5.32;;;4.85;;
75858;SDS011;64504;51.308;8.620;2022-12-07T15:05:47;7.15;;;4.45;;
75858;SDS011;64504;51.308;8.620;2022-12-07T15:08:13;7.18;;;4.95;;
75858;SDS011;64504;51.308;8.620;2022-12-07T15:10:38;8.38;;;4.03;;
75858;SDS011;64504;51.308;8.620;2022-12-07T15:13:05;5.97;;;4.18;;
75858;SDS011;64504;51.308;8.620;2022-12-07T15:15:51;4.65;;;4.20;;
75858;SDS011;64504;51.308;8.620;2022-12-07T15:18:20;7.00;;;5.32;;
75858;SDS011;64504;51.308;8.620;2022-12-07T15:20:46;5.32;;;4.20;;
75858;SDS011;64504;51.308;8.620;2022-12-07T15:23:12;11.23;;;5.55;;
75858;SDS011;64504;51.308;8.620;2022-12-07T15:25:41;11.55;;;5.40;;
75858;SDS011;64504;51.308;8.620;2022-12-07T15:28:08;10.85;;;6.32;;
75858;SDS011;64504;51.308;8.620;2022-12-07T15:30:33;7.22;;;5.55;;
75858;SDS011;64504;51.308;8.620;2022-12-07T15:32:58;10.35;;;6.90;;
75858;SDS011;64504;51.308;8.620;2022-12-07T15:35:24;10.50;;;5.85;;
75858;SDS011;64504;51.308;8.620;2022-12-07T15:37:49;7.90;;;6.38;;
75858;SDS011;64504;51.308;8.620;2022-12-07T15:40:15;10.98;;;5.13;;
75858;SDS011;64504;51.308;8.620;2022-12-07T15:42:40;8.90;;;5.82;;
75858;SDS011;64504;51.308;8.620;2022-12-07T15:45:07;10.75;;;6.60;;
75858;SDS011;64504;51.308;8.620;2022-12-07T15:47:43;7.70;;;5.80;;
75858;SDS011;64504;51.308;8.620;2022-12-07T15:50:13;11.27;;;6.38;;
75858;SDS011;64504;51.308;8.620;2022-12-07T15:52:42;15.45;;;6.80;;
75858;SDS011;64504;51.308;8.620;2022-12-07T15:55:08;13.38;;;7.18;;
75858;SDS011;64504;51.308;8.620;2022-12-07T15:57:35;9.13;;;6.90;;
75858;SDS011;64504;51.308;8.620;2022-12-07T16:00:02;9.50;;;6.93;;
75858;SDS011;64504;51.308;8.620;2022-12-07T16:02:29;13.80;;;7.10;;
75858;SDS011;64504;51.308;8.620;2022-12-07T16:04:54;7.55;;;6.80;;
75858;SDS011;64504;51.308;8.620;2022-12-07T16:07:20;9.40;;;7.60;;
75858;SDS011;64504;51.308;8.620;2022-12-07T16:09:46;19.35;;;7.55;;
75858;SDS011;64504;51.308;8.620;2022-12-07T16:12:13;14.35;;;7.25;;
75858;SDS011;64504;51.308;8.620;2022-12-07T16:14:39;6.32;;;5.75;;
75858;SDS011;64504;51.308;8.620;2022-12-07T16:17:05;7.85;;;6.85;;
75858;SDS011;64504;51.308;8.620;2022-12-07T16:19:31;8.05;;;7.22;;
75858;SDS011;64504;51.308;8.620;2022-12-07T16:21:57;13.63;;;7.00;;
75858;SDS011;64504;51.308;8.620;2022-12-07T16:24:24;9.10;;;7.38;;
75858;SDS011;64504;51.308;8.620;2022-12-07T16:26:50;15.07;;;9.32;;
75858;SDS011;64504;51.308;8.620;2022-12-07T16:29:17;13.60;;;8.13;;
75858;SDS011;64504;51.308;8.620;2022-12-07T16:31:44;11.88;;;6.72;;
75858;SDS011;64504;51.308;8.620;2022-12-07T16:34:09;12.23;;;8.13;;
75858;SDS011;64504;51.308;8.620;2022-12-07T16:36:35;17.13;;;8.52;;
75858;SDS011;64504;51.308;8.620;2022-12-07T16:39:01;13.68;;;8.15;;
75858;SDS011;64504;51.308;8.620;2022-12-07T16:41:26;8.10;;;7.25;;
75858;SDS011;64504;51.308;8.620;2022-12-07T16:43:52;11.82;;;5.40;;
75858;SDS011;64504;51.308;8.620;2022-12-07T16:46:18;8.60;;;7.57;;
75858;SDS011;64504;51.308;8.620;2022-12-07T16:48:43;12.00;;;7.28;;
75858;SDS011;64504;51.308;8.620;2022-12-07T16:51:10;8.77;;;7.30;;
75858;SDS011;64504;51.308;8.620;2022-12-07T16:53:37;13.35;;;5.47;;
75858;SDS011;64504;51.308;8.620;2022-12-07T16:56:09;8.43;;;6.13;;
75858;SDS011;64504;51.308;8.620;2022-12-07T16:58:36;15.68;;;6.95;;
75858;SDS011;64504;51.308;8.620;2022-12-07T17:01:18;9.60;;;6.25;;
75858;SDS011;64504;51.308;8.620;2022-12-07T17:03:45;9.45;;;7.40;;
75858;SDS011;64504;51.308;8.620;2022-12-07T17:06:16;10.93;;;7.07;;
75858;SDS011;64504;51.308;8.620;2022-12-07T17:08:44;10.55;;;5.03;;
75858;SDS011;64504;51.308;8.620;2022-12-07T17:11:11;8.88;;;5.95;;
75858;SDS011;64504;51.308;8.620;2022-12-07T17:13:38;10.85;;;6.88;;
75858;SDS011;64504;51.308;8.620;2022-12-07T17:16:22;8.07;;;4.85;;
75858;SDS011;64504;51.308;8.620;2022-12-07T17:18:48;9.20;;;6.30;;
75858;SDS011;64504;51.308;8.620;2022-12-07T17:21:13;9.43;;;6.70;;
75858;SDS011;64504;51.308;8.620;2022-12-07T17:23:39;10.48;;;6.60;;
75858;SDS011;64504;51.308;8.620;2022-12-07T17:26:09;10.43;;;5.65;;
75858;SDS011;64504;51.308;8.620;2022-12-07T17:28:39;10.68;;;6.95;;
75858;SDS011;64504;51.308;8.620;2022-12-07T17:31:06;13.95;;;7.30;;
75858;SDS011;64504;51.308;8.620;2022-12-07T17:33:33;9.50;;;5.97;;
75858;SDS011;64504;51.308;8.620;2022-12-07T17:36:00;11.60;;;7.45;;
75858;SDS011;64504;51.308;8.620;2022-12-07T17:38:27;16.90;;;7.15;;
75858;SDS011;64504;51.308;8.620;2022-12-07T17:40:53;7.97;;;7.10;;
75858;SDS011;64504;51.308;8.620;2022-12-07T17:43:19;12.57;;;6.85;;
75858;SDS011;64504;51.308;8.620;2022-12-07T17:45:46;8.15;;;6.55;;
75858;SDS011;64504;51.308;8.620;2022-12-07T17:48:12;10.38;;;6.18;;
75858;SDS011;64504;51.308;8.620;2022-12-07T17:50:38;8.75;;;6.03;;
75858;SDS011;64504;51.308;8.620;2022-12-07T17:53:22;13.40;;;7.22;;
75858;SDS011;64504;51.308;8.620;2022-12-07T17:55:47;9.05;;;8.15;;
75858;SDS011;64504;51.308;8.620;2022-12-07T17:58:17;11.15;;;8.65;;
75858;SDS011;64504;51.308;8.620;2022-12-07T18:00:43;16.63;;;8.75;;
75858;SDS011;64504;51.308;8.620;2022-12-07T18:03:09;20.38;;;9.27;;
75858;SDS011;64504;51.308;8.620;2022-12-07T18:05:36;12.07;;;7.43;;
75858;SDS011;64504;51.308;8.620;2022-12-07T18:08:02;17.40;;;8.40;;
75858;SDS011;64504;51.308;8.620;2022-12-07T18:10:29;18.23;;;10.32;;
75858;SDS011;64504;51.308;8.620;2022-12-07T18:12:54;21.23;;;9.40;;
75858;SDS011;64504;51.308;8.620;2022-12-07T18:15:40;22.07;;;9.73;;
75858;SDS011;64504;51.308;8.620;2022-12-07T18:18:06;18.05;;;12.05;;
75858;SDS011;64504;51.308;8.620;2022-12-07T18:20:32;16.85;;;8.52;;
75858;SDS011;64504;51.308;8.620;2022-12-07T18:22:57;14.00;;;9.63;;
75858;SDS011;64504;51.308;8.620;2022-12-07T18:25:25;18.83;;;8.98;;
75858;SDS011;64504;51.308;8.620;2022-12-07T18:27:51;15.48;;;9.10;;
75858;SDS011;64504;51.308;8.620;2022-12-07T18:30:18;16.33;;;11.45;;
75858;SDS011;64504;51.308;8.620;2022-12-07T18:32:46;20.20;;;10.48;;
75858;SDS011;64504;51.308;8.620;2022-12-07T18:35:12;15.13;;;10.48;;